Time;durP1;ratioP1;P1;durP2;ratioP2;P2;SDS_P1;SDS_P2;PMS_P1;PMS_P2;Temp;Humidity;BMP_temperature;BMP_pressure;BME280_temperature;BME280_humidity;BME280_pressure;Samples;Min_cycle;Max_cycle;Signal;HPM_P1;HPM_P2
2022/11/02 00:00:49;;;;;;;21.35;8.45;;;8.90;99.90;;;;;;5093828;28;20520;-63
2022/11/02 00:03:15;;;;;;;19.25;7.65;;;8.90;99.90;;;;;;5093436;28;20016;-64
2022/11/02 00:05:41;;;;;;;20.63;8.98;;;9.10;99.90;;;;;;5093673;28;20043;-63
2022/11/02 00:08:06;;;;;;;21.58;8.35;;;8.90;99.90;;;;;;5092923;28;20077;-63
2022/11/02 00:10:32;;;;;;;20.90;8.38;;;8.90;99.90;;;;;;5093359;28;20038;-64
2022/11/02 00:12:58;;;;;;;19.58;7.88;;;9.00;99.90;;;;;;5093206;28;20285;-63
2022/11/02 00:15:29;;;;;;;18.98;7.88;;;9.00;99.90;;;;;;5093124;28;20482;-64
2022/11/02 00:18:01;;;;;;;17.40;6.97;;;9.00;99.90;;;;;;5093239;28;20024;-63
2022/11/02 00:20:28;;;;;;;18.87;7.50;;;9.00;99.90;;;;;;5093434;28;20559;-63
2022/11/02 00:22:57;;;;;;;24.48;8.27;;;9.00;99.90;;;;;;5092886;28;20266;-63
2022/11/02 00:25:25;;;;;;;18.75;7.35;;;8.90;99.90;;;;;;5093058;28;20024;-64
2022/11/02 00:27:51;;;;;;;20.75;8.20;;;8.90;99.90;;;;;;5093344;28;20028;-64
2022/11/02 00:30:17;;;;;;;28.55;9.10;;;9.00;99.90;;;;;;5093166;28;20390;-63
2022/11/02 00:32:42;;;;;;;24.02;8.05;;;9.10;99.90;;;;;;5093378;28;20021;-64
2022/11/02 00:35:09;;;;;;;23.67;9.18;;;9.00;99.90;;;;;;5093076;28;20089;-63
2022/11/02 00:37:35;;;;;;;20.67;7.95;;;9.10;99.90;;;;;;5092196;28;20024;-64
2022/11/02 00:40:01;;;;;;;22.27;8.75;;;8.90;99.90;;;;;;5092653;28;20397;-63
2022/11/02 00:42:27;;;;;;;22.20;7.88;;;8.70;99.90;;;;;;5092465;28;20056;-64
2022/11/02 00:44:53;;;;;;;22.70;8.93;;;8.80;99.90;;;;;;5092886;28;20046;-63
2022/11/02 00:47:18;;;;;;;21.23;7.80;;;8.70;99.90;;;;;;5092451;28;20043;-63
2022/11/02 00:49:44;;;;;;;20.15;7.40;;;8.60;99.90;;;;;;5092400;28;20046;-63
2022/11/02 00:52:10;;;;;;;20.88;7.60;;;8.70;99.90;;;;;;5091860;28;20024;-63
2022/11/02 00:54:35;;;;;;;21.08;8.55;;;8.80;99.90;;;;;;5092339;28;20068;-64
2022/11/02 00:57:01;;;;;;;21.00;8.07;;;8.80;99.90;;;;;;5092626;28;20479;-63
2022/11/02 00:59:27;;;;;;;21.27;8.40;;;8.90;99.90;;;;;;5092076;28;20463;-63
2022/11/02 01:01:52;;;;;;;30.58;10.20;;;9.00;99.90;;;;;;5091710;28;20020;-63
2022/11/02 01:04:18;;;;;;;26.85;9.65;;;8.90;99.90;;;;;;5092099;28;20043;-64
2022/11/02 01:06:44;;;;;;;27.73;9.43;;;8.90;99.90;;;;;;5092086;28;20020;-63
2022/11/02 01:09:12;;;;;;;24.10;9.02;;;8.90;99.90;;;;;;5092077;28;20048;-64
2022/11/02 01:11:39;;;;;;;24.67;9.98;;;8.90;99.90;;;;;;5092087;28;20024;-63
2022/11/02 01:14:05;;;;;;;29.17;9.77;;;8.90;99.90;;;;;;5091969;28;20165;-63
2022/11/02 01:16:31;;;;;;;19.45;8.75;;;8.80;99.90;;;;;;5092238;28;20433;-64
2022/11/02 01:18:57;;;;;;;21.10;8.48;;;8.70;99.90;;;;;;5091821;28;20020;-64
2022/11/02 01:21:24;;;;;;;24.63;9.38;;;8.70;99.90;;;;;;5091306;28;20070;-63
2022/11/02 01:23:50;;;;;;;20.60;9.20;;;8.60;99.90;;;;;;5091883;28;20027;-63
2022/11/02 01:26:17;;;;;;;20.35;8.38;;;8.60;99.90;;;;;;5092313;28;20549;-63
2022/11/02 01:28:42;;;;;;;16.52;7.55;;;8.60;99.90;;;;;;5091754;28;20019;-64
2022/11/02 01:31:09;;;;;;;19.27;8.02;;;8.60;99.90;;;;;;5091951;28;20106;-63
2022/11/02 01:33:35;;;;;;;19.38;8.13;;;8.80;99.90;;;;;;5091583;28;20024;-63
2022/11/02 01:36:05;;;;;;;21.98;7.78;;;8.70;99.90;;;;;;5091393;28;20077;-64
2022/11/02 01:38:31;;;;;;;20.85;7.88;;;8.80;99.90;;;;;;5092113;28;20020;-63
2022/11/02 01:40:57;;;;;;;19.35;7.32;;;8.70;99.90;;;;;;5091458;28;20487;-63
2022/11/02 01:43:29;;;;;;;18.35;7.40;;;8.70;99.90;;;;;;5091651;28;20016;-63
2022/11/02 01:46:19;;;;;;;17.58;7.35;;;8.60;99.90;;;;;;5091891;28;20024;-63
2022/11/02 01:49:04;;;;;;;13.85;6.47;;;8.70;99.90;;;;;;5091539;28;20402;-64
2022/11/02 01:51:38;;;;;;;23.95;7.28;;;8.70;99.90;;;;;;5091639;28;20043;-64
2022/11/02 01:54:09;;;;;;;17.30;6.50;;;8.90;99.90;;;;;;5091638;28;20032;-64
2022/11/02 01:56:37;;;;;;;19.35;6.55;;;9.00;99.90;;;;;;5091607;28;20027;-63
2022/11/02 01:59:09;;;;;;;17.30;6.05;;;9.00;99.90;;;;;;5091488;28;20036;-63
2022/11/02 02:01:34;;;;;;;20.55;6.75;;;9.10;99.90;;;;;;5091872;28;20610;-64
2022/11/02 02:04:01;;;;;;;15.02;6.18;;;9.00;99.90;;;;;;5091007;28;20111;-63
2022/11/02 02:06:27;;;;;;;19.60;6.70;;;9.00;99.90;;;;;;5091490;28;20032;-63
2022/11/02 02:08:54;;;;;;;18.55;6.60;;;9.10;99.90;;;;;;5091883;28;20482;-63
2022/11/02 02:11:27;;;;;;;16.45;5.85;;;9.00;99.90;;;;;;5091442;28;20051;-63
2022/11/02 02:14:10;;;;;;;12.45;5.57;;;9.00;99.90;;;;;;5092545;28;20100;-63
2022/11/02 02:16:54;;;;;;;15.77;6.45;;;9.10;99.90;;;;;;5095319;28;20027;-63
2022/11/02 02:19:37;;;;;;;14.32;6.13;;;9.10;99.90;;;;;;5094987;28;20169;-63
2022/11/02 02:22:12;;;;;;;16.52;5.55;;;9.10;99.90;;;;;;5095125;28;20020;-64
2022/11/02 02:25:06;;;;;;;16.27;5.28;;;9.10;99.90;;;;;;5095032;28;20375;-63
2022/11/02 02:27:47;;;;;;;16.17;6.30;;;9.10;99.90;;;;;;5095061;28;20406;-63
2022/11/02 02:30:15;;;;;;;16.08;5.70;;;9.00;99.90;;;;;;5095231;28;20048;-64
2022/11/02 02:32:58;;;;;;;17.83;6.07;;;9.00;99.90;;;;;;5094874;28;20536;-63
2022/11/02 02:35:34;;;;;;;16.55;5.80;;;9.00;99.90;;;;;;5094871;28;20028;-64
2022/11/02 02:38:02;;;;;;;15.05;6.22;;;9.10;99.90;;;;;;5094699;28;20058;-63
2022/11/02 02:40:46;;;;;;;16.00;6.05;;;9.10;99.90;;;;;;5093288;28;20404;-63
2022/11/02 02:43:36;;;;;;;17.73;5.78;;;9.10;99.90;;;;;;5094782;28;20436;-63
2022/11/02 02:46:21;;;;;;;13.45;5.90;;;9.20;99.90;;;;;;5094580;28;20032;-63
2022/11/02 02:48:49;;;;;;;14.55;5.35;;;9.20;99.90;;;;;;5094362;28;20046;-63
2022/11/02 02:51:23;;;;;;;18.42;6.00;;;9.20;99.90;;;;;;5094554;28;20463;-63
2022/11/02 02:54:12;;;;;;;16.63;5.00;;;9.20;99.90;;;;;;5094639;28;20035;-63
2022/11/02 02:56:41;;;;;;;16.92;5.82;;;9.20;99.90;;;;;;5093903;28;20050;-63
2022/11/02 02:59:19;;;;;;;17.00;5.63;;;9.20;99.90;;;;;;5093582;28;20585;-63
2022/11/02 03:01:45;;;;;;;15.38;5.25;;;9.20;99.90;;;;;;5094264;28;20036;-63
2022/11/02 03:04:12;;;;;;;15.57;5.50;;;9.20;99.90;;;;;;5094285;28;20032;-63
2022/11/02 03:06:40;;;;;;;17.45;5.50;;;9.20;99.90;;;;;;5094292;28;20029;-63
2022/11/02 03:09:35;;;;;;;14.38;5.05;;;9.30;99.90;;;;;;5094527;28;20024;-63
2022/11/02 03:12:22;;;;;;;20.75;5.88;;;9.30;99.90;;;;;;5092188;28;20127;-63
2022/11/02 03:15:18;;;;;;;16.98;5.10;;;9.30;99.90;;;;;;5092213;28;20032;-63
2022/11/02 03:17:57;;;;;;;15.20;4.90;;;9.40;99.90;;;;;;5092022;28;20437;-64
2022/11/02 03:20:41;;;;;;;17.33;5.35;;;9.30;99.90;;;;;;5091846;28;20502;-63
2022/11/02 03:23:26;;;;;;;15.65;5.57;;;9.30;99.90;;;;;;5091999;28;20532;-63
2022/11/02 03:26:12;;;;;;;20.25;5.40;;;9.30;99.90;;;;;;5091299;28;20105;-64
2022/11/02 03:28:52;;;;;;;15.05;5.38;;;9.40;99.90;;;;;;5091807;28;20596;-63
2022/11/02 03:31:33;;;;;;;14.73;5.40;;;9.30;99.90;;;;;;5091708;28;20028;-63
2022/11/02 03:34:21;;;;;;;15.95;4.68;;;9.30;99.90;;;;;;5091585;28;20028;-63
2022/11/02 03:37:02;;;;;;;19.63;5.18;;;9.30;99.90;;;;;;5091422;28;20044;-63
2022/11/02 03:39:34;;;;;;;14.07;4.93;;;9.30;99.90;;;;;;5091351;28;20036;-63
2022/11/02 03:42:02;;;;;;;15.13;4.80;;;9.20;99.90;;;;;;5091188;28;20051;-63
2022/11/02 03:44:29;;;;;;;14.77;5.00;;;9.30;99.90;;;;;;5091336;28;20031;-63
2022/11/02 03:46:59;;;;;;;16.02;5.25;;;9.20;99.90;;;;;;5091466;28;20020;-64
2022/11/02 03:49:27;;;;;;;21.40;5.40;;;9.10;99.90;;;;;;5077249;28;20033;-63
2022/11/02 03:51:55;;;;;;;18.45;5.68;;;9.10;99.90;;;;;;5073251;28;20035;-63
2022/11/02 03:54:42;;;;;;;17.00;5.03;;;9.00;99.90;;;;;;5073165;28;20498;-63
2022/11/02 03:57:13;;;;;;;16.42;5.18;;;9.00;99.90;;;;;;5073233;28;20116;-63
2022/11/02 03:59:38;;;;;;;21.10;5.90;;;9.00;99.90;;;;;;5072908;28;20495;-63
2022/11/02 04:02:08;;;;;;;16.98;5.28;;;9.10;99.90;;;;;;5072674;28;20063;-64
2022/11/02 04:04:33;;;;;;;17.10;4.93;;;9.10;99.90;;;;;;5072996;28;20033;-63
2022/11/02 04:06:59;;;;;;;15.40;5.03;;;9.00;99.90;;;;;;5072925;28;20148;-63
2022/11/02 04:09:25;;;;;;;13.02;5.00;;;9.00;99.90;;;;;;5073249;28;20075;-63
2022/11/02 04:14:38;;;;;;;16.50;5.10;;;9.00;99.90;;;;;;5072523;28;20059;-63
2022/11/02 04:19:56;;;;;;;14.55;5.10;;;8.90;99.90;;;;;;5078698;28;20410;-63
2022/11/02 04:25:14;;;;;;;18.88;5.35;;;9.00;99.90;;;;;;5092971;28;20055;-63
2022/11/02 04:27:41;;;;;;;15.70;5.25;;;9.00;99.90;;;;;;5093071;28;20436;-63
2022/11/02 04:30:08;;;;;;;13.77;4.78;;;9.10;99.90;;;;;;5092475;28;20028;-64
2022/11/02 04:35:22;;;;;;;19.55;6.30;;;9.40;99.90;;;;;;5092631;28;20043;-63
2022/11/02 04:40:32;;;;;;;18.08;6.18;;;9.50;99.90;;;;;;5092646;28;20559;-63
2022/11/02 04:42:58;;;;;;;18.10;5.38;;;9.60;99.90;;;;;;5092075;28;20046;-63
2022/11/02 04:45:23;;;;;;;14.70;4.93;;;9.60;99.90;;;;;;5092429;28;20059;-63
2022/11/02 04:47:49;;;;;;;10.88;4.63;;;9.60;99.90;;;;;;5092353;28;20020;-64
2022/11/02 04:50:15;;;;;;;19.50;5.57;;;9.60;99.90;;;;;;5092241;28;20030;-63
2022/11/02 04:52:41;;;;;;;13.27;4.75;;;9.50;99.90;;;;;;5092586;28;20024;-63
2022/11/02 04:55:07;;;;;;;19.20;5.82;;;9.40;99.90;;;;;;5091968;28;20414;-64
2022/11/02 04:57:32;;;;;;;18.80;5.72;;;9.30;99.90;;;;;;5092152;28;20461;-63
2022/11/02 04:59:58;;;;;;;12.05;4.68;;;9.30;99.90;;;;;;5092018;28;20124;-64
2022/11/02 05:02:24;;;;;;;19.67;5.38;;;9.30;99.90;;;;;;5092022;28;20027;-64
2022/11/02 05:04:49;;;;;;;13.82;4.50;;;9.20;99.90;;;;;;5092234;28;20055;-63
2022/11/02 05:07:15;;;;;;;12.98;4.88;;;9.20;99.90;;;;;;5092459;28;20028;-63
2022/11/02 05:09:41;;;;;;;15.52;5.10;;;9.20;99.90;;;;;;5092092;28;20103;-63
2022/11/02 05:12:07;;;;;;;13.80;4.95;;;9.20;99.90;;;;;;5090355;28;20051;-63
2022/11/02 05:14:33;;;;;;;11.90;4.53;;;9.20;99.90;;;;;;5091866;28;20124;-63
2022/11/02 05:16:59;;;;;;;14.45;5.10;;;9.30;99.90;;;;;;5091969;28;20073;-64
2022/11/02 05:19:24;;;;;;;19.33;5.45;;;9.30;99.90;;;;;;5091611;28;20036;-63
2022/11/02 05:21:50;;;;;;;15.25;5.05;;;9.30;99.90;;;;;;5091932;28;20108;-64
2022/11/02 05:24:16;;;;;;;16.08;5.60;;;9.30;99.90;;;;;;5091948;28;20027;-63
2022/11/02 05:26:42;;;;;;;17.35;6.03;;;9.40;99.90;;;;;;5091821;28;20036;-64
2022/11/02 05:29:08;;;;;;;15.18;5.50;;;9.40;99.90;;;;;;5091944;28;20124;-63
2022/11/02 05:31:34;;;;;;;17.05;5.80;;;9.40;99.90;;;;;;5091736;28;20020;-63
2022/11/02 05:34:00;;;;;;;14.35;5.65;;;9.60;99.90;;;;;;5092049;28;20529;-64
2022/11/02 05:36:25;;;;;;;20.42;5.40;;;9.70;99.90;;;;;;5091534;28;20111;-64
2022/11/02 05:38:53;;;;;;;15.95;5.68;;;9.70;99.90;;;;;;5091897;28;20016;-63
2022/11/02 05:41:18;;;;;;;17.77;5.93;;;9.70;99.90;;;;;;5091145;28;20414;-63
2022/11/02 05:43:44;;;;;;;15.63;5.57;;;9.60;99.90;;;;;;5092014;28;20020;-63
2022/11/02 05:46:10;;;;;;;19.80;6.97;;;9.50;99.90;;;;;;5091680;28;20053;-64
2022/11/02 05:48:35;;;;;;;19.20;7.03;;;9.50;99.90;;;;;;5094148;28;20016;-63
2022/11/02 05:51:03;;;;;;;22.20;7.05;;;9.50;99.90;;;;;;5095797;28;20032;-63
2022/11/02 05:53:31;;;;;;;19.27;7.00;;;9.40;99.90;;;;;;5094581;28;20036;-63
2022/11/02 05:55:58;;;;;;;20.02;7.03;;;9.30;99.90;;;;;;5095656;28;20032;-63
2022/11/02 05:58:24;;;;;;;22.80;6.82;;;9.30;99.90;;;;;;5095810;28;20020;-63
2022/11/02 06:00:50;;;;;;;15.73;6.88;;;9.30;99.90;;;;;;5095595;28;20702;-63
2022/11/02 06:03:16;;;;;;;17.27;6.40;;;9.20;99.90;;;;;;5095487;28;20024;-63
2022/11/02 06:05:42;;;;;;;16.23;6.40;;;9.30;99.90;;;;;;5095596;28;20792;-63
2022/11/02 06:08:08;;;;;;;21.00;7.50;;;9.20;99.90;;;;;;5095491;28;20051;-63
2022/11/02 06:10:34;;;;;;;19.88;7.22;;;9.20;99.90;;;;;;5095061;28;20052;-63
2022/11/02 06:13:01;;;;;;;19.27;7.50;;;9.10;99.90;;;;;;5095841;28;20474;-64
2022/11/02 06:15:30;;;;;;;13.02;6.28;;;9.00;99.90;;;;;;5095268;28;20024;-63
2022/11/02 06:17:55;;;;;;;21.40;7.75;;;9.00;99.90;;;;;;5095449;28;20025;-63
2022/11/02 06:20:22;;;;;;;20.20;7.22;;;9.00;99.90;;;;;;5095088;28;20563;-63
2022/11/02 06:22:48;;;;;;;23.25;8.48;;;8.90;99.90;;;;;;5095135;28;20020;-64
2022/11/02 06:25:14;;;;;;;19.70;8.73;;;8.70;99.90;;;;;;5094592;28;20063;-63
2022/11/02 06:27:40;;;;;;;22.48;9.40;;;8.70;99.90;;;;;;5095013;28;20052;-64
2022/11/02 06:30:07;;;;;;;27.30;11.32;;;8.70;99.90;;;;;;5094941;28;20443;-63
2022/11/02 06:32:33;;;;;;;18.92;11.60;;;8.60;99.90;;;;;;5094920;28;20371;-63
2022/11/02 06:34:59;;;;;;;28.90;15.93;;;8.80;99.90;;;;;;5094981;28;20039;-63
2022/11/02 06:37:25;;;;;;;29.25;19.20;;;8.70;99.90;;;;;;5094812;28;20521;-63
2022/11/02 06:39:50;;;;;;;34.35;23.17;;;8.70;99.90;;;;;;5094300;28;20047;-64
2022/11/02 06:42:16;;;;;;;36.30;23.67;;;8.70;99.90;;;;;;5094727;28;20495;-64
2022/11/02 06:44:42;;;;;;;36.65;25.15;;;8.80;99.90;;;;;;5094754;28;20081;-63
2022/11/02 06:47:08;;;;;;;32.53;22.88;;;8.80;99.90;;;;;;5094710;28;20027;-63
2022/11/02 06:49:33;;;;;;;33.10;23.15;;;8.90;99.90;;;;;;5094593;28;20027;-63
2022/11/02 06:51:59;;;;;;;24.67;16.27;;;8.70;99.90;;;;;;5094977;28;20474;-63
2022/11/02 06:54:25;;;;;;;29.70;20.48;;;8.60;99.90;;;;;;5094254;28;20012;-63
2022/11/02 06:56:50;;;;;;;29.88;18.73;;;8.70;99.90;;;;;;5094563;28;20033;-63
2022/11/02 06:59:16;;;;;;;37.75;21.90;;;8.80;99.90;;;;;;5093733;28;20028;-63
2022/11/02 07:01:42;;;;;;;29.75;20.85;;;8.80;99.90;;;;;;5094823;28;20436;-63
2022/11/02 07:04:07;;;;;;;28.77;17.65;;;8.80;99.90;;;;;;5094529;28;20028;-63
2022/11/02 07:06:33;;;;;;;30.85;19.70;;;8.80;99.90;;;;;;5094855;28;20499;-63
2022/11/02 07:08:59;;;;;;;39.15;20.77;;;8.80;99.90;;;;;;5093985;28;20020;-64
2022/11/02 07:11:24;;;;;;;45.03;23.90;;;9.00;99.90;;;;;;5094276;28;20099;-63
2022/11/02 07:13:50;;;;;;;50.05;25.67;;;9.00;99.90;;;;;;5094297;28;20059;-63
2022/11/02 07:16:16;;;;;;;54.00;26.30;;;9.20;99.90;;;;;;5094178;28;20401;-63
2022/11/02 07:18:41;;;;;;;36.25;22.33;;;9.30;99.90;;;;;;5094023;28;20028;-63
2022/11/02 07:21:10;;;;;;;59.10;34.83;;;9.50;99.90;;;;;;5093923;28;20566;-63
2022/11/02 07:23:36;;;;;;;54.15;25.05;;;9.60;99.90;;;;;;5093835;28;20035;-63
2022/11/02 07:26:02;;;;;;;42.30;19.40;;;9.80;99.90;;;;;;5093707;28;20024;-63
2022/11/02 07:28:28;;;;;;;53.03;20.48;;;9.90;99.90;;;;;;5094117;28;20051;-63
2022/11/02 07:30:54;;;;;;;43.55;20.27;;;10.00;99.90;;;;;;5093513;28;20028;-63
2022/11/02 07:33:20;;;;;;;29.48;13.75;;;10.20;99.90;;;;;;5093677;28;20031;-63
2022/11/02 07:35:45;;;;;;;56.95;22.85;;;10.40;99.90;;;;;;5093524;28;20016;-63
2022/11/02 07:38:11;;;;;;;35.45;17.33;;;10.60;99.90;;;;;;5093033;28;20028;-63
2022/11/02 07:40:37;;;;;;;29.38;14.60;;;10.70;99.90;;;;;;5093266;28;20394;-63
2022/11/02 07:43:04;;;;;;;30.88;16.45;;;10.90;99.90;;;;;;5093452;28;20085;-63
2022/11/02 07:45:30;;;;;;;30.67;13.15;;;10.90;99.90;;;;;;5093572;28;20036;-63
2022/11/02 07:47:56;;;;;;;19.63;11.60;;;11.10;99.90;;;;;;5093950;28;20028;-63
2022/11/02 07:50:24;;;;;;;19.30;12.27;;;11.40;99.90;;;;;;5093617;28;20081;-64
2022/11/02 07:52:52;;;;;;;24.50;13.50;;;11.60;99.90;;;;;;5093268;28;20103;-64
2022/11/02 07:55:20;;;;;;;17.27;11.40;;;12.00;99.90;;;;;;5093679;28;20052;-64
2022/11/02 07:57:54;;;;;;;45.60;23.25;;;12.20;99.90;;;;;;5093578;28;20020;-63
2022/11/02 08:00:19;;;;;;;48.65;24.25;;;12.40;99.90;;;;;;5093396;28;20039;-63
2022/11/02 08:02:45;;;;;;;36.00;22.80;;;12.50;99.90;;;;;;5093122;28;20435;-64
2022/11/02 08:05:11;;;;;;;43.72;24.13;;;12.70;99.90;;;;;;5091838;28;20020;-63
2022/11/02 08:07:36;;;;;;;39.03;26.10;;;12.80;99.90;;;;;;5092789;28;20085;-63
2022/11/02 08:10:02;;;;;;;57.10;30.42;;;12.50;99.90;;;;;;5093471;28;20047;-63
2022/11/02 08:12:28;;;;;;;49.67;33.28;;;12.50;99.90;;;;;;5092065;28;20035;-63
2022/11/02 08:14:54;;;;;;;81.90;41.00;;;12.40;99.90;;;;;;5092941;28;20036;-63
2022/11/02 08:17:20;;;;;;;78.82;47.03;;;12.30;99.90;;;;;;5093066;28;20209;-63
2022/11/02 08:19:46;;;;;;;164.93;56.38;;;12.40;99.90;;;;;;5092602;28;20067;-63
2022/11/02 08:22:11;;;;;;;225.35;61.67;;;12.50;99.90;;;;;;5092447;28;20050;-63
2022/11/02 08:24:37;;;;;;;118.85;57.10;;;12.30;99.90;;;;;;5092843;28;20028;-63
2022/11/02 08:27:03;;;;;;;132.25;70.90;;;12.00;99.90;;;;;;5092668;28;20390;-63
2022/11/02 08:29:28;;;;;;;119.28;71.10;;;12.00;99.90;;;;;;5092780;28;20398;-63
2022/11/02 08:31:54;;;;;;;132.30;72.55;;;12.30;99.90;;;;;;5093068;28;20027;-64
2022/11/02 08:34:20;;;;;;;125.85;68.13;;;12.50;99.90;;;;;;5092542;28;20028;-63
2022/11/02 08:36:45;;;;;;;91.15;53.13;;;12.60;99.90;;;;;;5092317;28;20023;-63
2022/11/02 08:39:11;;;;;;;70.00;46.85;;;12.90;99.90;;;;;;5092511;28;20056;-63
2022/11/02 08:41:37;;;;;;;55.80;38.85;;;13.50;99.90;;;;;;5092347;28;20559;-64
2022/11/02 08:44:02;;;;;;;46.63;33.05;;;13.70;99.90;;;;;;5092871;28;20065;-64
2022/11/02 08:46:29;;;;;;;39.67;29.50;;;14.30;99.90;;;;;;5092676;28;20032;-63
2022/11/02 08:48:54;;;;;;;33.13;24.58;;;15.40;99.90;;;;;;5092432;28;20392;-63
2022/11/02 08:51:20;;;;;;;28.65;23.13;;;16.30;99.90;;;;;;5092496;28;20034;-63
2022/11/02 08:53:46;;;;;;;26.75;21.25;;;18.10;99.90;;;;;;5092350;28;20020;-63
2022/11/02 08:56:11;;;;;;;22.70;19.40;;;18.40;99.90;;;;;;5092350;28;20043;-64
2022/11/02 08:58:37;;;;;;;20.08;17.60;;;17.90;99.90;;;;;;5092712;28;20410;-64
2022/11/02 09:01:03;;;;;;;17.80;15.38;;;18.70;99.90;;;;;;5091110;28;20093;-64
2022/11/02 09:03:29;;;;;;;19.23;15.38;;;19.10;99.90;;;;;;5092828;28;20104;-64
2022/11/02 09:05:59;;;;;;;18.92;14.57;;;20.00;99.90;;;;;;5092114;28;20032;-63
2022/11/02 09:08:26;;;;;;;16.60;12.93;;;20.30;99.90;;;;;;5092602;28;20112;-64
2022/11/02 09:10:53;;;;;;;16.95;12.35;;;20.90;99.90;;;;;;5092763;28;20021;-64
2022/11/02 09:13:23;;;;;;;14.57;12.10;;;21.10;99.90;;;;;;5092742;28;20421;-64
2022/11/02 09:15:51;;;;;;;16.17;12.27;;;20.60;99.90;;;;;;5093018;28;20023;-64
2022/11/02 09:18:17;;;;;;;18.83;13.80;;;20.70;99.90;;;;;;5092698;28;20027;-64
2022/11/02 09:20:44;;;;;;;18.27;12.65;;;20.00;99.90;;;;;;5092309;28;20517;-64
2022/11/02 09:23:10;;;;;;;17.83;14.65;;;20.30;99.90;;;;;;5091918;28;20080;-63
2022/11/02 09:25:35;;;;;;;18.88;12.65;;;21.20;99.90;;;;;;5092217;28;20424;-63
2022/11/02 09:28:01;;;;;;;14.13;12.18;;;21.50;99.90;;;;;;5092134;28;20046;-64
2022/11/02 09:30:27;;;;;;;14.48;11.10;;;21.60;99.90;;;;;;5093126;28;20466;-64
2022/11/02 09:32:58;;;;;;;13.77;11.15;;;22.20;99.90;;;;;;5092441;28;20024;-63
2022/11/02 09:35:26;;;;;;;15.13;11.80;;;23.20;99.90;;;;;;5092464;28;20106;-64
2022/11/02 09:37:51;;;;;;;13.20;10.60;;;22.50;99.90;;;;;;5091957;28;20016;-63
2022/11/02 09:40:21;;;;;;;13.30;10.07;;;22.30;99.90;;;;;;5091690;28;20464;-64
2022/11/02 09:42:59;;;;;;;14.00;9.90;;;23.00;99.90;;;;;;5091651;28;20043;-63
2022/11/02 09:45:26;;;;;;;18.60;16.05;;;23.00;99.90;;;;;;5091804;28;20028;-64
2022/11/02 09:48:06;;;;;;;11.90;9.00;;;22.40;99.90;;;;;;5091647;28;20073;-63
2022/11/02 09:50:51;;;;;;;14.80;8.93;;;22.50;99.90;;;;;;5092158;28;20024;-63
2022/11/02 09:53:23;;;;;;;10.88;8.27;;;23.10;99.90;;;;;;5091847;28;20020;-63
2022/11/02 09:55:54;;;;;;;12.20;8.50;;;22.90;99.90;;;;;;5091668;28;20043;-63
2022/11/02 09:58:37;;;;;;;10.02;8.05;;;22.80;99.90;;;;;;5091735;28;20027;-63
2022/11/02 10:01:45;;;;;;;11.70;7.93;;;21.80;99.90;;;;;;5091437;28;20119;-63
2022/11/02 10:04:31;;;;;;;12.52;8.35;;;22.20;99.90;;;;;;5091082;28;20036;-63
2022/11/02 10:07:50;;;;;;;13.63;8.93;;;22.40;99.90;;;;;;5091636;28;20028;-63
2022/11/02 10:10:33;;;;;;;15.00;8.98;;;21.20;99.90;;;;;;5088893;28;20524;-64
2022/11/02 10:13:17;;;;;;;13.20;7.95;;;20.50;99.90;;;;;;5089489;28;20024;-64
2022/11/02 10:15:54;;;;;;;12.32;8.05;;;20.30;99.90;;;;;;5089188;28;20158;-63
2022/11/02 10:18:28;;;;;;;12.57;7.13;;;21.20;99.90;;;;;;5088925;28;20513;-64
2022/11/02 10:21:00;;;;;;;11.10;7.30;;;21.50;99.90;;;;;;5089670;28;20059;-63
2022/11/02 10:23:33;;;;;;;13.48;6.93;;;21.40;99.90;;;;;;5089771;28;20115;-63
2022/11/02 10:26:00;;;;;;;12.48;6.80;;;21.90;99.90;;;;;;5089921;28;20154;-63
2022/11/02 10:28:32;;;;;;;12.88;7.13;;;21.20;99.90;;;;;;5089130;28;20114;-64
2022/11/02 10:31:00;;;;;;;11.80;6.35;;;21.70;99.90;;;;;;5089051;28;20082;-64
2022/11/02 10:33:28;;;;;;;12.60;5.88;;;21.90;99.90;;;;;;5088964;28;20024;-63
2022/11/02 10:36:00;;;;;;;13.35;5.57;;;21.60;99.90;;;;;;5092544;28;20043;-63
2022/11/02 10:39:07;;;;;;;11.07;5.53;;;22.00;99.90;;;;;;5092637;28;20032;-63
2022/11/02 10:41:51;;;;;;;12.43;5.75;;;21.90;99.90;;;;;;5016115;28;20050;-63
2022/11/02 10:44:19;;;;;;;11.50;6.07;;;21.60;99.90;;;;;;5012855;28;20088;-63
2022/11/02 10:47:04;;;;;;;10.38;5.50;;;21.90;99.90;;;;;;5011088;28;20046;-63
2022/11/02 10:49:32;;;;;;;8.75;4.88;;;22.40;99.90;;;;;;5011896;28;20065;-63
2022/11/02 10:51:59;;;;;;;9.80;5.07;;;22.30;99.90;;;;;;5012442;28;20092;-63
2022/11/02 10:54:25;;;;;;;9.50;4.60;;;21.70;99.90;;;;;;5013394;28;20034;-63
2022/11/02 10:56:51;;;;;;;12.48;4.80;;;21.90;99.90;;;;;;5012396;28;20522;-63
2022/11/02 10:59:23;;;;;;;11.27;4.55;;;21.30;99.90;;;;;;5010896;28;20045;-64
2022/11/02 11:01:55;;;;;;;8.50;3.40;;;22.50;99.90;;;;;;5011286;28;20052;-63
2022/11/02 11:04:28;;;;;;;9.73;3.63;;;21.60;99.90;;;;;;5011333;28;20114;-63
2022/11/02 11:06:57;;;;;;;7.40;2.88;;;21.70;99.90;;;;;;5011859;28;20046;-63
2022/11/02 11:09:38;;;;;;;11.27;3.22;;;22.20;99.90;;;;;;5010779;28;20120;-62
2022/11/02 11:12:12;;;;;;;9.05;2.65;;;22.90;99.90;;;;;;5037880;28;20066;-63
2022/11/02 11:14:48;;;;;;;15.25;3.38;;;23.30;99.90;;;;;;5073512;28;20085;-62
2022/11/02 11:17:17;;;;;;;9.60;2.83;;;22.80;99.90;;;;;;5074025;28;20031;-62
2022/11/02 11:19:54;;;;;;;10.10;3.22;;;22.70;99.90;;;;;;5078203;28;20036;-62
2022/11/02 11:22:35;;;;;;;9.30;2.63;;;22.20;99.90;;;;;;5093927;28;20032;-62
2022/11/02 11:25:21;;;;;;;7.80;2.63;;;22.00;99.90;;;;;;5093771;28;20198;-62
2022/11/02 11:27:53;;;;;;;9.50;2.80;;;21.80;99.90;;;;;;5093854;28;20024;-63
2022/11/02 11:30:32;;;;;;;9.93;2.63;;;22.50;99.90;;;;;;5093142;28;20542;-61
2022/11/02 11:32:59;;;;;;;11.07;2.97;;;22.90;99.90;;;;;;5093843;28;20024;-62
2022/11/02 11:35:37;;;;;;;8.90;2.92;;;23.00;99.90;;;;;;5093613;28;20053;-62
2022/11/02 11:38:07;;;;;;;10.82;2.70;;;23.00;99.90;;;;;;5093750;28;20017;-63
2022/11/02 11:40:38;;;;;;;8.73;2.92;;;22.90;99.90;;;;;;5093572;28;20119;-63
2022/11/02 11:43:11;;;;;;;8.82;2.60;;;22.40;99.90;;;;;;5093702;28;20086;-62
2022/11/02 11:45:37;;;;;;;8.10;2.33;;;22.70;99.90;;;;;;5093479;28;20435;-62
2022/11/02 11:48:31;;;;;;;10.40;3.03;;;22.70;99.90;;;;;;5093663;28;20099;-63
2022/11/02 11:50:57;;;;;;;9.77;2.80;;;21.70;99.90;;;;;;5093393;28;20074;-63
2022/11/02 11:53:24;;;;;;;10.27;2.55;;;21.30;99.90;;;;;;5093524;28;20032;-63
2022/11/02 11:55:53;;;;;;;9.45;2.75;;;21.80;99.90;;;;;;5093481;28;20413;-64
2022/11/02 11:58:23;;;;;;;9.32;2.72;;;21.00;99.90;;;;;;5093078;28;20055;-63
2022/11/02 12:01:02;;;;;;;9.77;2.97;;;21.30;99.90;;;;;;5093235;28;20036;-64
2022/11/02 12:03:27;;;;;;;9.88;2.55;;;20.90;99.90;;;;;;5092955;28;20386;-63
2022/11/02 12:06:30;;;;;;;11.25;2.58;;;20.70;99.90;;;;;;5093194;28;20099;-63
2022/11/02 12:09:36;;;;;;;12.65;2.97;;;20.90;99.90;;;;;;5093168;28;20028;-63
2022/11/02 12:12:17;;;;;;;9.77;2.55;;;21.10;99.90;;;;;;5090878;28;20468;-63
2022/11/02 12:14:48;;;;;;;9.90;2.35;;;20.70;99.90;;;;;;5090858;28;20432;-62
2022/11/02 12:17:39;;;;;;;8.38;2.67;;;20.40;99.90;;;;;;5090412;28;20040;-63
2022/11/02 12:20:26;;;;;;;8.13;2.17;;;20.50;99.90;;;;;;5090449;28;20044;-63
2022/11/02 12:23:28;;;;;;;10.65;2.17;;;20.10;99.90;;;;;;5090533;28;20039;-63
2022/11/02 12:26:06;;;;;;;9.52;2.17;;;20.10;99.90;;;;;;5090420;28;20588;-63
2022/11/02 12:28:32;;;;;;;7.75;2.60;;;19.70;99.90;;;;;;5090328;28;20059;-62
2022/11/02 12:31:23;;;;;;;10.35;2.47;;;19.90;99.90;;;;;;5090486;28;20066;-63
2022/11/02 12:34:08;;;;;;;13.45;2.63;;;19.80;99.90;;;;;;5090516;28;20042;-63
2022/11/02 12:36:56;;;;;;;11.20;2.53;;;20.20;99.90;;;;;;5090397;28;20426;-63
2022/11/02 12:39:52;;;;;;;9.80;2.78;;;20.20;99.90;;;;;;5089811;28;20059;-63
2022/11/02 12:42:32;;;;;;;9.07;2.58;;;20.10;99.90;;;;;;5089752;28;20048;-63
2022/11/02 12:45:23;;;;;;;10.63;2.55;;;20.00;99.90;;;;;;5090731;28;20046;-63
2022/11/02 12:47:54;;;;;;;9.68;2.22;;;19.70;99.90;;;;;;5088643;28;20085;-63
2022/11/02 12:50:47;;;;;;;9.18;2.60;;;19.90;99.90;;;;;;5072664;28;20025;-63
2022/11/02 12:53:34;;;;;;;11.18;2.50;;;19.60;99.90;;;;;;5072122;28;20406;-63
2022/11/02 12:56:04;;;;;;;11.65;2.40;;;19.60;99.90;;;;;;5071752;28;20439;-63
2022/11/02 12:58:33;;;;;;;8.32;2.35;;;19.70;99.90;;;;;;5071810;28;20028;-63
2022/11/02 13:01:26;;;;;;;11.70;2.60;;;19.70;99.90;;;;;;5072459;28;20351;-63
2022/11/02 13:04:12;;;;;;;6.90;2.23;;;19.80;99.90;;;;;;5072232;28;20028;-62
2022/11/02 13:06:43;;;;;;;11.30;2.47;;;19.70;99.90;;;;;;5071951;28;20033;-62
2022/11/02 13:09:24;;;;;;;8.70;1.90;;;19.80;99.90;;;;;;5072020;28;20439;-62
2022/11/02 13:12:04;;;;;;;7.60;2.20;;;19.60;99.90;;;;;;5071981;28;20027;-62
2022/11/02 13:14:40;;;;;;;9.85;2.83;;;19.60;99.90;;;;;;5072188;28;20036;-63